sensor_id;sensor_type;location;lat;lon;timestamp;temperature;humidity
1355;DHT22;671;48.972;9.276;2023-02-28T00:01:26;-0.60;99.90
1355;DHT22;671;48.972;9.276;2023-02-28T00:03:52;-0.60;99.90
1355;DHT22;671;48.972;9.276;2023-02-28T00:06:19;-0.60;99.90
1355;DHT22;671;48.972;9.276;2023-02-28T00:08:47;-0.60;1.00
1355;DHT22;671;48.972;9.276;2023-02-28T00:11:14;-0.60;1.00
1355;DHT22;671;48.972;9.276;2023-02-28T00:13:44;-0.60;1.00
1355;DHT22;671;48.972;9.276;2023-02-28T00:16:18;-0.60;1.00
1355;DHT22;671;48.972;9.276;2023-02-28T00:18:45;-0.60;1.00
1355;DHT22;671;48.972;9.276;2023-02-28T00:21:14;-0.60;1.00
1355;DHT22;671;48.972;9.276;2023-02-28T00:23:41;-0.70;1.00
1355;DHT22;671;48.972;9.276;2023-02-28T00:26:08;-0.70;99.90
1355;DHT22;671;48.972;9.276;2023-02-28T00:28:34;-0.70;99.90
1355;DHT22;671;48.972;9.276;2023-02-28T00:31:01;-0.60;99.90
1355;DHT22;671;48.972;9.276;2023-02-28T00:33:28;-0.70;99.90
1355;DHT22;671;48.972;9.276;2023-02-28T00:36:05;-0.70;1.00
1355;DHT22;671;48.972;9.276;2023-02-28T00:38:32;-0.70;1.00
1355;DHT22;671;48.972;9.276;2023-02-28T00:40:59;-0.70;1.00
1355;DHT22;671;48.972;9.276;2023-02-28T00:43:32;-0.70;1.00
1355;DHT22;671;48.972;9.276;2023-02-28T00:45:58;-0.70;1.00
1355;DHT22;671;48.972;9.276;2023-02-28T00:48:25;-0.70;1.00
1355;DHT22;671;48.972;9.276;2023-02-28T00:50:52;-0.70;1.00
1355;DHT22;671;48.972;9.276;2023-02-28T00:53:19;-0.60;1.00
1355;DHT22;671;48.972;9.276;2023-02-28T00:55:45;-0.60;99.90
1355;DHT22;671;48.972;9.276;2023-02-28T00:58:12;-0.60;99.90
1355;DHT22;671;48.972;9.276;2023-02-28T01:00:38;-0.60;99.90
1355;DHT22;671;48.972;9.276;2023-02-28T01:03:04;-0.70;99.90
1355;DHT22;671;48.972;9.276;2023-02-28T01:05:31;-0.60;99.90
1355;DHT22;671;48.972;9.276;2023-02-28T01:07:57;-0.70;1.00
1355;DHT22;671;48.972;9.276;2023-02-28T01:10:25;-0.60;1.00
1355;DHT22;671;48.972;9.276;2023-02-28T01:12:53;-0.70;1.00
1355;DHT22;671;48.972;9.276;2023-02-28T01:15:20;-0.70;1.00
1355;DHT22;671;48.972;9.276;2023-02-28T01:17:46;-0.60;1.00
1355;DHT22;671;48.972;9.276;2023-02-28T01:20:13;-0.70;1.00
1355;DHT22;671;48.972;9.276;2023-02-28T01:22:39;-0.70;1.00
1355;DHT22;671;48.972;9.276;2023-02-28T01:25:06;-0.70;1.00
1355;DHT22;671;48.972;9.276;2023-02-28T01:27:33;-0.70;1.00
1355;DHT22;671;48.972;9.276;2023-02-28T01:30:00;-0.70;1.00
1355;DHT22;671;48.972;9.276;2023-02-28T01:32:26;-0.70;1.00
1355;DHT22;671;48.972;9.276;2023-02-28T01:34:52;-0.70;99.90
1355;DHT22;671;48.972;9.276;2023-02-28T01:37:19;-0.70;49.10
1355;DHT22;671;48.972;9.276;2023-02-28T01:39:45;-0.80;99.90
1355;DHT22;671;48.972;9.276;2023-02-28T01:42:12;-0.80;99.90
1355;DHT22;671;48.972;9.276;2023-02-28T01:45:01;-0.80;1.00
1355;DHT22;671;48.972;9.276;2023-02-28T01:47:36;-0.80;1.00
1355;DHT22;671;48.972;9.276;2023-02-28T01:50:09;-0.80;1.00
1355;DHT22;671;48.972;9.276;2023-02-28T01:52:38;-0.90;1.00
1355;DHT22;671;48.972;9.276;2023-02-28T01:55:06;-0.90;99.90
1355;DHT22;671;48.972;9.276;2023-02-28T01:57:36;-0.90;99.90
1355;DHT22;671;48.972;9.276;2023-02-28T02:00:11;-0.90;1.00
1355;DHT22;671;48.972;9.276;2023-02-28T02:02:42;-0.90;1.00
1355;DHT22;671;48.972;9.276;2023-02-28T02:05:18;-1.00;1.00
1355;DHT22;671;48.972;9.276;2023-02-28T02:07:48;-1.00;99.90
1355;DHT22;671;48.972;9.276;2023-02-28T02:10:20;-1.10;99.90
1355;DHT22;671;48.972;9.276;2023-02-28T02:30:27;-1.20;1.00
1355;DHT22;671;48.972;9.276;2023-02-28T02:38:36;-1.20;1.00
1355;DHT22;671;48.972;9.276;2023-02-28T02:41:16;-1.20;1.00
1355;DHT22;671;48.972;9.276;2023-02-28T02:46:45;-1.20;1.00
1355;DHT22;671;48.972;9.276;2023-02-28T02:49:20;-1.10;1.00
1355;DHT22;671;48.972;9.276;2023-02-28T02:51:48;-1.10;1.00
1355;DHT22;671;48.972;9.276;2023-02-28T02:54:22;-1.10;1.00
1355;DHT22;671;48.972;9.276;2023-02-28T02:56:50;-1.10;1.00
1355;DHT22;671;48.972;9.276;2023-02-28T02:59:20;-1.00;1.00
1355;DHT22;671;48.972;9.276;2023-02-28T03:01:55;-0.90;1.00
1355;DHT22;671;48.972;9.276;2023-02-28T03:04:25;-0.90;1.00
1355;DHT22;671;48.972;9.276;2023-02-28T03:06:54;-0.80;1.00
1355;DHT22;671;48.972;9.276;2023-02-28T03:09:25;-0.80;99.90
1355;DHT22;671;48.972;9.276;2023-02-28T03:11:54;-0.70;99.90
1355;DHT22;671;48.972;9.276;2023-02-28T03:17:31;-0.60;50.10
1355;DHT22;671;48.972;9.276;2023-02-28T03:20:17;-0.60;49.90
1355;DHT22;671;48.972;9.276;2023-02-28T03:22:52;-0.50;1.00
1355;DHT22;671;48.972;9.276;2023-02-28T03:25:31;-0.50;1.00
1355;DHT22;671;48.972;9.276;2023-02-28T03:33:21;-0.30;1.00
1355;DHT22;671;48.972;9.276;2023-02-28T03:35:54;-0.30;99.90
1355;DHT22;671;48.972;9.276;2023-02-28T03:39:13;-0.30;99.90
1355;DHT22;671;48.972;9.276;2023-02-28T03:41:21;-0.30;1.00
1355;DHT22;671;48.972;9.276;2023-02-28T03:44:03;-0.20;1.00
1355;DHT22;671;48.972;9.276;2023-02-28T03:46:36;-0.20;1.00
1355;DHT22;671;48.972;9.276;2023-02-28T03:49:18;-0.20;1.00
1355;DHT22;671;48.972;9.276;2023-02-28T03:51:47;-0.10;1.00
1355;DHT22;671;48.972;9.276;2023-02-28T03:54:19;-0.10;99.90
1355;DHT22;671;48.972;9.276;2023-02-28T03:56:52;-0.10;99.90
1355;DHT22;671;48.972;9.276;2023-02-28T04:02:00;-0.10;1.00
1355;DHT22;671;48.972;9.276;2023-02-28T04:04:27;0.00;1.00
1355;DHT22;671;48.972;9.276;2023-02-28T04:07:02;0.00;27.40
1355;DHT22;671;48.972;9.276;2023-02-28T04:09:29;0.00;1.00
1355;DHT22;671;48.972;9.276;2023-02-28T04:11:55;0.00;1.00
1355;DHT22;671;48.972;9.276;2023-02-28T04:14:22;0.10;1.00
1355;DHT22;671;48.972;9.276;2023-02-28T04:16:49;0.10;1.00
1355;DHT22;671;48.972;9.276;2023-02-28T04:19:17;0.10;1.00
1355;DHT22;671;48.972;9.276;2023-02-28T04:21:51;0.10;1.00
1355;DHT22;671;48.972;9.276;2023-02-28T04:24:20;0.10;1.00
1355;DHT22;671;48.972;9.276;2023-02-28T04:26:49;0.20;1.00
1355;DHT22;671;48.972;9.276;2023-02-28T04:29:24;0.20;1.00
1355;DHT22;671;48.972;9.276;2023-02-28T04:31:51;0.20;99.90
1355;DHT22;671;48.972;9.276;2023-02-28T04:34:20;0.20;1.00
1355;DHT22;671;48.972;9.276;2023-02-28T04:36:47;0.20;99.90
1355;DHT22;671;48.972;9.276;2023-02-28T04:39:16;0.30;99.90
1355;DHT22;671;48.972;9.276;2023-02-28T04:41:45;0.30;99.90
1355;DHT22;671;48.972;9.276;2023-02-28T04:44:12;0.30;99.90
1355;DHT22;671;48.972;9.276;2023-02-28T04:46:39;0.30;47.50
1355;DHT22;671;48.972;9.276;2023-02-28T04:49:05;0.30;1.00
1355;DHT22;671;48.972;9.276;2023-02-28T04:51:32;0.30;1.00
1355;DHT22;671;48.972;9.276;2023-02-28T04:53:58;0.30;1.00
1355;DHT22;671;48.972;9.276;2023-02-28T04:56:25;0.30;1.00
1355;DHT22;671;48.972;9.276;2023-02-28T04:58:51;0.40;1.00
1355;DHT22;671;48.972;9.276;2023-02-28T05:03:55;0.40;21.80
1355;DHT22;671;48.972;9.276;2023-02-28T05:06:23;0.40;1.00
1355;DHT22;671;48.972;9.276;2023-02-28T05:08:51;0.40;1.00
1355;DHT22;671;48.972;9.276;2023-02-28T05:11:30;0.40;1.00
1355;DHT22;671;48.972;9.276;2023-02-28T05:14:02;0.40;1.00
1355;DHT22;671;48.972;9.276;2023-02-28T05:16:29;0.40;1.00
1355;DHT22;671;48.972;9.276;2023-02-28T05:18:56;0.40;1.00
1355;DHT22;671;48.972;9.276;2023-02-28T05:21:28;0.40;1.00
1355;DHT22;671;48.972;9.276;2023-02-28T05:24:00;0.40;1.00
1355;DHT22;671;48.972;9.276;2023-02-28T05:26:27;0.50;1.00
1355;DHT22;671;48.972;9.276;2023-02-28T05:28:54;0.50;1.00
1355;DHT22;671;48.972;9.276;2023-02-28T05:31:21;0.50;1.00
1355;DHT22;671;48.972;9.276;2023-02-28T05:33:47;0.50;1.00
1355;DHT22;671;48.972;9.276;2023-02-28T05:36:14;0.50;1.00
1355;DHT22;671;48.972;9.276;2023-02-28T05:38:40;0.50;1.00
1355;DHT22;671;48.972;9.276;2023-02-28T05:41:11;0.50;1.00
1355;DHT22;671;48.972;9.276;2023-02-28T05:43:37;0.50;1.00
1355;DHT22;671;48.972;9.276;2023-02-28T05:46:09;0.50;1.00
1355;DHT22;671;48.972;9.276;2023-02-28T05:48:37;0.50;1.00
1355;DHT22;671;48.972;9.276;2023-02-28T05:51:04;0.50;1.00
1355;DHT22;671;48.972;9.276;2023-02-28T05:53:31;0.50;1.00
1355;DHT22;671;48.972;9.276;2023-02-28T05:55:58;0.50;1.00
1355;DHT22;671;48.972;9.276;2023-02-28T05:58:25;0.50;1.00
1355;DHT22;671;48.972;9.276;2023-02-28T06:00:55;0.50;1.00
1355;DHT22;671;48.972;9.276;2023-02-28T06:03:21;0.50;1.00
1355;DHT22;671;48.972;9.276;2023-02-28T06:05:48;0.50;1.00
1355;DHT22;671;48.972;9.276;2023-02-28T06:08:14;0.50;1.00
1355;DHT22;671;48.972;9.276;2023-02-28T06:10:41;0.50;1.00
1355;DHT22;671;48.972;9.276;2023-02-28T06:13:07;0.50;1.00
1355;DHT22;671;48.972;9.276;2023-02-28T06:15:34;0.50;1.00
1355;DHT22;671;48.972;9.276;2023-02-28T06:18:00;0.50;1.00
1355;DHT22;671;48.972;9.276;2023-02-28T06:20:27;0.50;99.90
1355;DHT22;671;48.972;9.276;2023-02-28T06:22:58;0.50;1.00
1355;DHT22;671;48.972;9.276;2023-02-28T06:25:28;0.50;1.00
1355;DHT22;671;48.972;9.276;2023-02-28T06:27:55;0.50;1.00
1355;DHT22;671;48.972;9.276;2023-02-28T06:30:21;0.50;1.00
1355;DHT22;671;48.972;9.276;2023-02-28T06:32:53;0.50;99.90
1355;DHT22;671;48.972;9.276;2023-02-28T06:35:20;0.50;1.00
1355;DHT22;671;48.972;9.276;2023-02-28T06:37:47;0.50;1.00
1355;DHT22;671;48.972;9.276;2023-02-28T06:40:14;0.50;99.90
1355;DHT22;671;48.972;9.276;2023-02-28T06:42:41;0.60;1.00
1355;DHT22;671;48.972;9.276;2023-02-28T06:45:07;0.60;99.90
1355;DHT22;671;48.972;9.276;2023-02-28T06:47:37;0.60;99.90
1355;DHT22;671;48.972;9.276;2023-02-28T06:50:05;0.60;99.90
1355;DHT22;671;48.972;9.276;2023-02-28T06:52:32;0.60;99.90
1355;DHT22;671;48.972;9.276;2023-02-28T06:54:58;0.70;99.90
1355;DHT22;671;48.972;9.276;2023-02-28T06:57:29;0.70;99.90
1355;DHT22;671;48.972;9.276;2023-02-28T07:00:01;0.70;99.90
1355;DHT22;671;48.972;9.276;2023-02-28T07:02:29;0.80;99.90
1355;DHT22;671;48.972;9.276;2023-02-28T07:04:55;0.80;99.90
1355;DHT22;671;48.972;9.276;2023-02-28T07:07:21;0.90;6.70
1355;DHT22;671;48.972;9.276;2023-02-28T07:09:48;0.90;18.20
1355;DHT22;671;48.972;9.276;2023-02-28T07:12:15;1.00;65.80
1355;DHT22;671;48.972;9.276;2023-02-28T07:14:41;1.00;1.00
1355;DHT22;671;48.972;9.276;2023-02-28T07:17:09;1.00;1.00
1355;DHT22;671;48.972;9.276;2023-02-28T07:19:38;1.00;1.00
1355;DHT22;671;48.972;9.276;2023-02-28T07:22:06;1.10;1.00
1355;DHT22;671;48.972;9.276;2023-02-28T07:24:33;1.10;1.00
1355;DHT22;671;48.972;9.276;2023-02-28T07:27:00;1.10;1.00
1355;DHT22;671;48.972;9.276;2023-02-28T07:29:27;1.10;1.00
1355;DHT22;671;48.972;9.276;2023-02-28T07:31:54;1.20;99.90
1355;DHT22;671;48.972;9.276;2023-02-28T07:34:21;1.30;1.00
1355;DHT22;671;48.972;9.276;2023-02-28T07:36:48;1.30;1.00
1355;DHT22;671;48.972;9.276;2023-02-28T07:39:14;1.30;1.00
1355;DHT22;671;48.972;9.276;2023-02-28T07:41:40;1.40;1.00
1355;DHT22;671;48.972;9.276;2023-02-28T07:44:10;1.40;1.00
1355;DHT22;671;48.972;9.276;2023-02-28T07:46:37;1.40;1.00
1355;DHT22;671;48.972;9.276;2023-02-28T07:49:04;1.40;99.90
1355;DHT22;671;48.972;9.276;2023-02-28T07:51:31;1.50;99.90
1355;DHT22;671;48.972;9.276;2023-02-28T07:53:57;1.50;99.90
1355;DHT22;671;48.972;9.276;2023-02-28T07:56:24;1.40;99.90
1355;DHT22;671;48.972;9.276;2023-02-28T07:58:50;1.50;99.90
1355;DHT22;671;48.972;9.276;2023-02-28T08:01:17;1.60;99.90
1355;DHT22;671;48.972;9.276;2023-02-28T08:03:45;1.60;99.90
1355;DHT22;671;48.972;9.276;2023-02-28T08:06:17;1.50;99.90
1355;DHT22;671;48.972;9.276;2023-02-28T08:08:44;1.60;99.90
1355;DHT22;671;48.972;9.276;2023-02-28T08:11:11;1.40;99.90
1355;DHT22;671;48.972;9.276;2023-02-28T08:13:37;1.40;99.90
1355;DHT22;671;48.972;9.276;2023-02-28T08:16:04;1.40;99.90
1355;DHT22;671;48.972;9.276;2023-02-28T08:18:32;1.40;99.90
1355;DHT22;671;48.972;9.276;2023-02-28T08:20:58;1.40;99.90
1355;DHT22;671;48.972;9.276;2023-02-28T08:23:25;1.40;99.90
1355;DHT22;671;48.972;9.276;2023-02-28T08:25:57;1.50;99.90
1355;DHT22;671;48.972;9.276;2023-02-28T08:28:24;1.60;1.00
1355;DHT22;671;48.972;9.276;2023-02-28T08:30:51;1.60;99.90
1355;DHT22;671;48.972;9.276;2023-02-28T08:33:17;1.60;99.90
1355;DHT22;671;48.972;9.276;2023-02-28T08:35:43;1.70;99.90
1355;DHT22;671;48.972;9.276;2023-02-28T08:38:10;1.80;99.90
1355;DHT22;671;48.972;9.276;2023-02-28T08:40:36;1.80;99.90
1355;DHT22;671;48.972;9.276;2023-02-28T08:43:03;1.90;20.60
1355;DHT22;671;48.972;9.276;2023-02-28T08:45:29;1.80;1.00
1355;DHT22;671;48.972;9.276;2023-02-28T08:47:56;1.90;1.00
1355;DHT22;671;48.972;9.276;2023-02-28T08:50:23;2.00;1.00
1355;DHT22;671;48.972;9.276;2023-02-28T08:52:49;2.00;1.00
1355;DHT22;671;48.972;9.276;2023-02-28T08:55:16;2.10;1.00
1355;DHT22;671;48.972;9.276;2023-02-28T08:57:42;2.10;1.00
1355;DHT22;671;48.972;9.276;2023-02-28T09:00:09;2.20;1.00
1355;DHT22;671;48.972;9.276;2023-02-28T09:02:40;2.20;1.00
1355;DHT22;671;48.972;9.276;2023-02-28T09:05:07;2.30;1.00
1355;DHT22;671;48.972;9.276;2023-02-28T09:07:34;2.40;1.00
1355;DHT22;671;48.972;9.276;2023-02-28T09:10:00;2.40;1.00
1355;DHT22;671;48.972;9.276;2023-02-28T09:12:27;2.40;1.00
1355;DHT22;671;48.972;9.276;2023-02-28T09:14:57;2.50;1.00
1355;DHT22;671;48.972;9.276;2023-02-28T09:17:24;2.60;1.00
1355;DHT22;671;48.972;9.276;2023-02-28T09:19:50;2.70;1.00
1355;DHT22;671;48.972;9.276;2023-02-28T09:22:17;2.80;99.90
1355;DHT22;671;48.972;9.276;2023-02-28T09:24:43;2.80;99.90
1355;DHT22;671;48.972;9.276;2023-02-28T09:27:10;2.90;99.90
1355;DHT22;671;48.972;9.276;2023-02-28T09:29:37;3.10;99.90
1355;DHT22;671;48.972;9.276;2023-02-28T09:32:04;3.30;99.90
1355;DHT22;671;48.972;9.276;2023-02-28T09:34:31;3.30;99.90
1355;DHT22;671;48.972;9.276;2023-02-28T09:36:58;3.40;99.90
1355;DHT22;671;48.972;9.276;2023-02-28T09:39:24;3.60;99.90
1355;DHT22;671;48.972;9.276;2023-02-28T09:41:54;3.80;99.90
1355;DHT22;671;48.972;9.276;2023-02-28T09:44:35;3.80;32.70
1355;DHT22;671;48.972;9.276;2023-02-28T09:47:27;4.00;18.40
1355;DHT22;671;48.972;9.276;2023-02-28T09:49:59;4.20;1.00
1355;DHT22;671;48.972;9.276;2023-02-28T09:52:30;4.30;1.00
1355;DHT22;671;48.972;9.276;2023-02-28T09:55:30;4.40;1.00
1355;DHT22;671;48.972;9.276;2023-02-28T09:58:00;4.50;1.00
1355;DHT22;671;48.972;9.276;2023-02-28T10:00:30;4.30;1.00
1355;DHT22;671;48.972;9.276;2023-02-28T10:03:23;4.40;1.00
1355;DHT22;671;48.972;9.276;2023-02-28T10:05:52;4.40;1.00
1355;DHT22;671;48.972;9.276;2023-02-28T10:08:28;4.40;1.00
1355;DHT22;671;48.972;9.276;2023-02-28T10:11:02;4.50;1.00
1355;DHT22;671;48.972;9.276;2023-02-28T10:14:19;4.50;1.00
1355;DHT22;671;48.972;9.276;2023-02-28T10:16:41;4.50;1.00
1355;DHT22;671;48.972;9.276;2023-02-28T10:19:30;4.50;1.00
1355;DHT22;671;48.972;9.276;2023-02-28T10:22:25;4.40;1.00
1355;DHT22;671;48.972;9.276;2023-02-28T10:24:53;4.50;1.00
1355;DHT22;671;48.972;9.276;2023-02-28T10:27:30;4.50;1.00
1355;DHT22;671;48.972;9.276;2023-02-28T10:29:58;4.40;1.00
1355;DHT22;671;48.972;9.276;2023-02-28T10:32:35;4.40;1.00
1355;DHT22;671;48.972;9.276;2023-02-28T10:35:44;4.50;1.00
1355;DHT22;671;48.972;9.276;2023-02-28T10:38:14;4.40;1.00
1355;DHT22;671;48.972;9.276;2023-02-28T10:40:41;4.40;1.00
1355;DHT22;671;48.972;9.276;2023-02-28T10:45:56;4.30;1.00
1355;DHT22;671;48.972;9.276;2023-02-28T10:48:33;4.40;1.00
1355;DHT22;671;48.972;9.276;2023-02-28T10:51:00;4.50;1.00
1355;DHT22;671;48.972;9.276;2023-02-28T10:53:48;4.50;1.00
1355;DHT22;671;48.972;9.276;2023-02-28T10:56:18;4.50;1.00
1355;DHT22;671;48.972;9.276;2023-02-28T11:04:00;4.60;1.00
1355;DHT22;671;48.972;9.276;2023-02-28T11:06:32;4.70;1.00
1355;DHT22;671;48.972;9.276;2023-02-28T11:09:23;4.80;1.00
1355;DHT22;671;48.972;9.276;2023-02-28T11:11:51;5.10;1.00
1355;DHT22;671;48.972;9.276;2023-02-28T11:16:48;5.50;1.00
1355;DHT22;671;48.972;9.276;2023-02-28T11:19:20;5.70;1.00
1355;DHT22;671;48.972;9.276;2023-02-28T11:21:53;5.80;1.00
1355;DHT22;671;48.972;9.276;2023-02-28T11:24:37;5.90;1.00
1355;DHT22;671;48.972;9.276;2023-02-28T11:27:45;6.00;99.90
1355;DHT22;671;48.972;9.276;2023-02-28T11:30:36;6.20;1.00
1355;DHT22;671;48.972;9.276;2023-02-28T11:33:28;6.40;99.90
1355;DHT22;671;48.972;9.276;2023-02-28T11:36:02;6.60;99.90
1355;DHT22;671;48.972;9.276;2023-02-28T11:38:37;6.70;99.90
1355;DHT22;671;48.972;9.276;2023-02-28T11:46:51;6.80;99.90
1355;DHT22;671;48.972;9.276;2023-02-28T12:03:27;6.90;99.90
1355;DHT22;671;48.972;9.276;2023-02-28T12:15:13;6.90;99.90
1355;DHT22;671;48.972;9.276;2023-02-28T12:17:38;6.90;99.90
1355;DHT22;671;48.972;9.276;2023-02-28T12:28:46;6.90;99.90
1355;DHT22;671;48.972;9.276;2023-02-28T12:31:17;7.00;99.90
1355;DHT22;671;48.972;9.276;2023-02-28T12:33:48;7.10;99.90
1355;DHT22;671;48.972;9.276;2023-02-28T12:36:19;7.20;99.90
1355;DHT22;671;48.972;9.276;2023-02-28T12:38:55;7.10;99.90
1355;DHT22;671;48.972;9.276;2023-02-28T12:41:41;7.10;99.90
1355;DHT22;671;48.972;9.276;2023-02-28T12:44:12;7.20;99.90
1355;DHT22;671;48.972;9.276;2023-02-28T12:46:42;7.20;99.90
1355;DHT22;671;48.972;9.276;2023-02-28T12:49:22;7.30;99.90
1355;DHT22;671;48.972;9.276;2023-02-28T12:51:50;7.20;99.90
1355;DHT22;671;48.972;9.276;2023-02-28T12:54:56;7.30;99.90
1355;DHT22;671;48.972;9.276;2023-02-28T12:57:36;7.40;99.90
1355;DHT22;671;48.972;9.276;2023-02-28T13:00:20;7.40;99.90
1355;DHT22;671;48.972;9.276;2023-02-28T13:09:01;7.40;99.90
1355;DHT22;671;48.972;9.276;2023-02-28T13:11:29;7.40;99.90
1355;DHT22;671;48.972;9.276;2023-02-28T13:13:58;7.40;99.90
1355;DHT22;671;48.972;9.276;2023-02-28T13:16:25;7.30;99.90
1355;DHT22;671;48.972;9.276;2023-02-28T13:18:52;7.30;99.90
1355;DHT22;671;48.972;9.276;2023-02-28T13:21:43;7.30;99.90
1355;DHT22;671;48.972;9.276;2023-02-28T13:24:11;7.30;99.90
1355;DHT22;671;48.972;9.276;2023-02-28T13:29:24;7.20;99.90
1355;DHT22;671;48.972;9.276;2023-02-28T13:34:33;7.10;99.90
1355;DHT22;671;48.972;9.276;2023-02-28T13:47:30;7.20;99.90
1355;DHT22;671;48.972;9.276;2023-02-28T13:50:43;7.10;99.90
1355;DHT22;671;48.972;9.276;2023-02-28T13:55:49;7.30;99.90
1355;DHT22;671;48.972;9.276;2023-02-28T14:11:40;7.00;99.90
1355;DHT22;671;48.972;9.276;2023-02-28T14:14:09;7.00;99.90
1355;DHT22;671;48.972;9.276;2023-02-28T14:16:55;7.00;99.90
1355;DHT22;671;48.972;9.276;2023-02-28T14:19:26;7.00;99.90
1355;DHT22;671;48.972;9.276;2023-02-28T14:22:29;7.10;99.90
1355;DHT22;671;48.972;9.276;2023-02-28T14:25:08;7.00;99.90
1355;DHT22;671;48.972;9.276;2023-02-28T14:27:45;7.00;99.90
1355;DHT22;671;48.972;9.276;2023-02-28T14:38:27;6.90;99.90
1355;DHT22;671;48.972;9.276;2023-02-28T14:40:57;6.80;99.90
1355;DHT22;671;48.972;9.276;2023-02-28T14:43:27;6.90;99.90
1355;DHT22;671;48.972;9.276;2023-02-28T14:45:56;6.90;99.90
1355;DHT22;671;48.972;9.276;2023-02-28T14:48:24;6.90;99.90
1355;DHT22;671;48.972;9.276;2023-02-28T14:50:53;6.90;99.90
1355;DHT22;671;48.972;9.276;2023-02-28T14:53:21;6.80;99.90
1355;DHT22;671;48.972;9.276;2023-02-28T14:55:49;6.90;99.90
1355;DHT22;671;48.972;9.276;2023-02-28T14:58:31;6.90;99.90
1355;DHT22;671;48.972;9.276;2023-02-28T15:01:00;6.90;99.90
1355;DHT22;671;48.972;9.276;2023-02-28T15:05:59;6.90;99.90
1355;DHT22;671;48.972;9.276;2023-02-28T15:08:26;6.90;99.90
1355;DHT22;671;48.972;9.276;2023-02-28T15:11:02;6.90;99.90
1355;DHT22;671;48.972;9.276;2023-02-28T15:13:38;6.90;99.90
1355;DHT22;671;48.972;9.276;2023-02-28T15:16:10;6.90;99.90
1355;DHT22;671;48.972;9.276;2023-02-28T15:21:15;6.90;99.90
1355;DHT22;671;48.972;9.276;2023-02-28T15:23:46;6.90;99.90
1355;DHT22;671;48.972;9.276;2023-02-28T15:26:21;6.80;99.90
1355;DHT22;671;48.972;9.276;2023-02-28T15:28:58;6.80;99.90
1355;DHT22;671;48.972;9.276;2023-02-28T15:31:32;6.80;99.90
1355;DHT22;671;48.972;9.276;2023-02-28T15:34:03;6.70;99.90
1355;DHT22;671;48.972;9.276;2023-02-28T15:36:32;6.70;99.90
1355;DHT22;671;48.972;9.276;2023-02-28T15:39:18;6.70;99.90
1355;DHT22;671;48.972;9.276;2023-02-28T15:41:44;6.70;99.90
1355;DHT22;671;48.972;9.276;2023-02-28T15:44:37;6.60;99.90
1355;DHT22;671;48.972;9.276;2023-02-28T15:47:21;6.60;99.90
1355;DHT22;671;48.972;9.276;2023-02-28T15:50:00;6.50;99.90
1355;DHT22;671;48.972;9.276;2023-02-28T15:55:27;6.40;99.90
1355;DHT22;671;48.972;9.276;2023-02-28T15:57:56;6.40;99.90
1355;DHT22;671;48.972;9.276;2023-02-28T16:00:28;6.30;99.90
1355;DHT22;671;48.972;9.276;2023-02-28T16:02:55;6.30;99.90
1355;DHT22;671;48.972;9.276;2023-02-28T16:05:25;6.20;99.90
1355;DHT22;671;48.972;9.276;2023-02-28T16:07:59;6.10;99.90
1355;DHT22;671;48.972;9.276;2023-02-28T16:10:27;6.00;99.90
1355;DHT22;671;48.972;9.276;2023-02-28T16:12:55;6.00;99.90
1355;DHT22;671;48.972;9.276;2023-02-28T16:15:29;5.90;99.90
1355;DHT22;671;48.972;9.276;2023-02-28T16:17:57;5.80;99.90
1355;DHT22;671;48.972;9.276;2023-02-28T16:20:26;5.70;99.90
1355;DHT22;671;48.972;9.276;2023-02-28T16:22:54;5.60;99.90
1355;DHT22;671;48.972;9.276;2023-02-28T16:25:26;5.60;99.90
1355;DHT22;671;48.972;9.276;2023-02-28T16:27:55;5.50;99.90
1355;DHT22;671;48.972;9.276;2023-02-28T16:30:25;5.50;99.90
1355;DHT22;671;48.972;9.276;2023-02-28T16:32:54;5.40;99.90
1355;DHT22;671;48.972;9.276;2023-02-28T16:35:20;5.40;99.90
1355;DHT22;671;48.972;9.276;2023-02-28T16:37:47;5.30;99.90
1355;DHT22;671;48.972;9.276;2023-02-28T16:40:20;5.20;99.90
1355;DHT22;671;48.972;9.276;2023-02-28T16:42:49;5.20;99.90
1355;DHT22;671;48.972;9.276;2023-02-28T16:45:18;5.10;99.90
1355;DHT22;671;48.972;9.276;2023-02-28T16:47:46;5.10;99.90
1355;DHT22;671;48.972;9.276;2023-02-28T16:50:19;5.00;99.90
1355;DHT22;671;48.972;9.276;2023-02-28T16:52:47;5.00;99.90
1355;DHT22;671;48.972;9.276;2023-02-28T16:55:14;4.90;99.90
1355;DHT22;671;48.972;9.276;2023-02-28T16:57:42;4.90;99.90
1355;DHT22;671;48.972;9.276;2023-02-28T17:00:13;4.80;99.90
1355;DHT22;671;48.972;9.276;2023-02-28T17:02:40;4.70;99.90
1355;DHT22;671;48.972;9.276;2023-02-28T17:05:10;4.60;99.90
1355;DHT22;671;48.972;9.276;2023-02-28T17:07:38;4.60;99.90
1355;DHT22;671;48.972;9.276;2023-02-28T17:10:25;4.50;99.90
1355;DHT22;671;48.972;9.276;2023-02-28T17:12:52;4.40;99.90
1355;DHT22;671;48.972;9.276;2023-02-28T17:15:19;4.40;99.90
1355;DHT22;671;48.972;9.276;2023-02-28T17:17:47;4.30;99.90
1355;DHT22;671;48.972;9.276;2023-02-28T17:20:16;4.30;99.90
1355;DHT22;671;48.972;9.276;2023-02-28T17:22:43;4.20;99.90
1355;DHT22;671;48.972;9.276;2023-02-28T17:25:10;4.20;99.90
1355;DHT22;671;48.972;9.276;2023-02-28T17:27:37;4.10;99.90
1355;DHT22;671;48.972;9.276;2023-02-28T17:32:40;4.10;99.90
1355;DHT22;671;48.972;9.276;2023-02-28T17:35:07;4.00;99.90
1355;DHT22;671;48.972;9.276;2023-02-28T17:37:34;4.00;99.90
1355;DHT22;671;48.972;9.276;2023-02-28T17:40:00;3.90;99.90
1355;DHT22;671;48.972;9.276;2023-02-28T17:42:27;3.90;99.90
1355;DHT22;671;48.972;9.276;2023-02-28T17:44:53;3.90;99.90
1355;DHT22;671;48.972;9.276;2023-02-28T17:47:20;3.90;99.90
1355;DHT22;671;48.972;9.276;2023-02-28T17:49:46;3.80;99.90
1355;DHT22;671;48.972;9.276;2023-02-28T17:52:13;3.80;99.90
1355;DHT22;671;48.972;9.276;2023-02-28T17:54:39;3.70;99.90
1355;DHT22;671;48.972;9.276;2023-02-28T17:57:08;3.70;99.90
1355;DHT22;671;48.972;9.276;2023-02-28T17:59:36;3.60;99.90
1355;DHT22;671;48.972;9.276;2023-02-28T18:02:03;3.60;99.90
1355;DHT22;671;48.972;9.276;2023-02-28T18:04:29;3.50;99.90
1355;DHT22;671;48.972;9.276;2023-02-28T18:06:56;3.50;99.90
1355;DHT22;671;48.972;9.276;2023-02-28T18:09:26;3.40;99.90
1355;DHT22;671;48.972;9.276;2023-02-28T18:11:54;3.40;99.90
1355;DHT22;671;48.972;9.276;2023-02-28T18:14:23;3.30;99.90
1355;DHT22;671;48.972;9.276;2023-02-28T18:16:51;3.30;99.90
1355;DHT22;671;48.972;9.276;2023-02-28T18:19:19;3.20;99.90
1355;DHT22;671;48.972;9.276;2023-02-28T18:21:48;3.20;99.90
1355;DHT22;671;48.972;9.276;2023-02-28T18:24:16;3.10;99.90
1355;DHT22;671;48.972;9.276;2023-02-28T18:26:42;3.10;99.90
1355;DHT22;671;48.972;9.276;2023-02-28T18:29:16;3.10;1.00
1355;DHT22;671;48.972;9.276;2023-02-28T18:31:43;3.00;1.00
1355;DHT22;671;48.972;9.276;2023-02-28T18:34:10;2.90;1.00
1355;DHT22;671;48.972;9.276;2023-02-28T18:36:36;2.90;1.00
1355;DHT22;671;48.972;9.276;2023-02-28T18:39:02;2.90;1.00
1355;DHT22;671;48.972;9.276;2023-02-28T18:41:29;2.80;1.00
1355;DHT22;671;48.972;9.276;2023-02-28T18:43:55;2.70;1.00
1355;DHT22;671;48.972;9.276;2023-02-28T18:46:22;2.60;1.00
1355;DHT22;671;48.972;9.276;2023-02-28T18:48:49;2.60;1.00
1355;DHT22;671;48.972;9.276;2023-02-28T18:51:19;2.50;1.00
1355;DHT22;671;48.972;9.276;2023-02-28T18:53:46;2.50;1.00
1355;DHT22;671;48.972;9.276;2023-02-28T18:56:14;2.40;1.00
1355;DHT22;671;48.972;9.276;2023-02-28T18:58:41;2.30;1.00
1355;DHT22;671;48.972;9.276;2023-02-28T19:01:25;2.30;1.00
1355;DHT22;671;48.972;9.276;2023-02-28T19:03:56;2.20;48.70
1355;DHT22;671;48.972;9.276;2023-02-28T19:06:24;2.20;99.90
1355;DHT22;671;48.972;9.276;2023-02-28T19:08:57;2.10;99.90
1355;DHT22;671;48.972;9.276;2023-02-28T19:11:24;2.10;99.90
1355;DHT22;671;48.972;9.276;2023-02-28T19:13:51;2.00;99.90
1355;DHT22;671;48.972;9.276;2023-02-28T19:16:19;2.10;99.90
1355;DHT22;671;48.972;9.276;2023-02-28T19:18:46;1.90;1.00
1355;DHT22;671;48.972;9.276;2023-02-28T19:21:15;1.90;1.00
1355;DHT22;671;48.972;9.276;2023-02-28T19:23:42;1.80;1.00
1355;DHT22;671;48.972;9.276;2023-02-28T19:26:14;1.70;1.00